Time;durP1;ratioP1;P1;durP2;ratioP2;P2;SDS_P1;SDS_P2;PMS_P1;PMS_P2;Temp;Humidity;BMP_temperature;BMP_pressure;BME280_temperature;BME280_humidity;BME280_pressure;Samples;Min_cycle;Max_cycle;Signal;HPM_P1;HPM_P2
2022/05/07 00:00:47;;;;;;;19.55;9.00;;;;;;;14.04;95.28;101906.78;5078489;28;20132;-72
2022/05/07 00:03:14;;;;;;;19.15;9.55;;;;;;;14.02;95.52;101909.16;5077493;28;20058;-73
2022/05/07 00:05:41;;;;;;;18.27;8.98;;;;;;;13.97;96.12;101905.97;5072885;28;20075;-74
2022/05/07 00:08:08;;;;;;;20.58;9.57;;;;;;;13.89;95.36;101896.78;5081708;28;20390;-72
2022/05/07 00:10:34;;;;;;;20.70;9.55;;;;;;;13.93;95.86;101903.16;5081696;28;20131;-73
2022/05/07 00:13:01;;;;;;;19.02;10.20;;;;;;;13.90;94.15;101892.03;5075445;28;20497;-72
2022/05/07 00:15:27;;;;;;;22.05;9.55;;;;;;;13.85;95.92;101895.97;5077007;28;20059;-72
2022/05/07 00:18:03;;;;;;;21.45;8.93;;;;;;;13.82;96.74;101891.19;5076531;28;20176;-73
2022/05/07 00:20:31;;;;;;;21.23;9.70;;;;;;;13.80;97.13;101893.56;5077758;28;20125;-73
2022/05/07 00:22:59;;;;;;;16.80;8.68;;;;;;;13.78;95.76;101892.38;5081849;28;20054;-71
2022/05/07 00:25:27;;;;;;;19.10;9.48;;;;;;;13.75;96.44;101884.78;5073351;28;20052;-73
2022/05/07 00:27:54;;;;;;;19.10;9.27;;;;;;;13.76;98.00;101881.63;5081120;28;20077;-72
2022/05/07 00:30:21;;;;;;;16.63;8.40;;;;;;;13.74;98.25;101884.00;5084225;28;20078;-74
2022/05/07 00:32:47;;;;;;;19.30;8.90;;;;;;;13.68;97.16;101879.22;5090900;28;20058;-72
2022/05/07 00:35:14;;;;;;;20.52;9.45;;;;;;;13.65;97.00;101883.56;5091299;28;20451;-72
2022/05/07 00:37:41;;;;;;;19.42;10.02;;;;;;;13.61;98.43;101873.63;5077113;28;20138;-73
2022/05/07 00:40:08;;;;;;;23.45;10.85;;;;;;;13.55;99.08;101875.97;5077701;28;20047;-72
2022/05/07 00:42:34;;;;;;;20.27;9.73;;;;;;;13.52;98.03;101885.09;5078205;28;20084;-71
2022/05/07 00:45:01;;;;;;;17.92;9.38;;;;;;;13.52;100.00;101878.72;5076537;28;20059;-75
2022/05/07 00:47:34;;;;;;;18.77;9.73;;;;;;;13.49;100.00;101882.28;5077887;28;20052;-72
2022/05/07 00:52:47;;;;;;;20.55;10.38;;;;;;;13.36;100.00;101875.47;5072578;28;20102;-72
2022/05/07 00:55:15;;;;;;;19.92;10.02;;;;;;;13.31;99.24;101873.03;5068998;28;20056;-72
2022/05/07 00:57:42;;;;;;;20.95;10.18;;;;;;;13.33;100.00;101876.25;5078660;28;20048;-72
2022/05/07 01:00:09;;;;;;;18.45;8.88;;;;;;;13.32;100.00;101878.22;5072527;28;20050;-72
2022/05/07 01:02:37;;;;;;;19.75;9.32;;;;;;;13.32;100.00;101871.84;5070135;28;20410;-72
2022/05/07 01:05:05;;;;;;;18.38;8.60;;;;;;;13.29;100.00;101881.78;5077342;28;20093;-72
2022/05/07 01:07:35;;;;;;;20.48;9.40;;;;;;;13.22;100.00;101876.16;5075774;28;20047;-73
2022/05/07 01:10:04;;;;;;;18.85;10.05;;;;;;;13.15;100.00;101866.97;5075078;28;20063;-73
2022/05/07 01:12:31;;;;;;;23.17;9.88;;;;;;;13.12;100.00;101865.78;5082550;28;20148;-73
2022/05/07 01:14:58;;;;;;;19.67;9.88;;;;;;;13.12;100.00;101863.00;5080570;28;20050;-73
2022/05/07 01:17:25;;;;;;;20.30;11.00;;;;;;;13.09;100.00;101860.22;5077731;28;20171;-73
2022/05/07 01:19:55;;;;;;;19.83;9.70;;;;;;;13.12;100.00;101854.66;5075894;28;20087;-73
2022/05/07 01:22:22;;;;;;;19.02;9.40;;;;;;;13.14;100.00;101859.84;5080115;28;20051;-74
2022/05/07 01:24:49;;;;;;;19.05;9.23;;;;;;;13.12;100.00;101863.00;5086842;28;20052;-72
2022/05/07 01:27:15;;;;;;;23.50;11.00;;;;;;;13.07;100.00;101858.59;5069805;28;20109;-73
2022/05/07 01:29:42;;;;;;;19.52;10.27;;;;;;;13.02;100.00;101857.38;5075341;28;20048;-71
2022/05/07 01:32:08;;;;;;;20.73;10.02;;;;;;;12.97;100.00;101861.28;5073282;28;20046;-73
2022/05/07 01:34:35;;;;;;;18.90;9.63;;;;;;;12.95;100.00;101858.09;5082885;28;20052;-74
2022/05/07 01:37:02;;;;;;;21.42;11.18;;;;;;;12.96;100.00;101854.94;5076362;28;20048;-72
2022/05/07 01:39:28;;;;;;;21.00;10.27;;;;;;;12.97;100.00;101855.72;5081949;28;20048;-72
2022/05/07 01:41:55;;;;;;;22.00;11.23;;;;;;;12.93;100.00;101858.47;5076019;28;20048;-72
2022/05/07 01:44:21;;;;;;;19.80;10.88;;;;;;;12.90;100.00;101847.34;5079645;28;20134;-73
2022/05/07 01:49:32;;;;;;;19.83;10.60;;;;;;;12.83;100.00;101856.41;5087485;28;20116;-73
2022/05/07 01:51:59;;;;;;;20.27;9.82;;;;;;;12.81;100.00;101850.47;5074841;28;20299;-72
2022/05/07 01:54:26;;;;;;;19.73;9.93;;;;;;;12.74;100.00;101842.06;5071066;28;20147;-72
2022/05/07 01:56:53;;;;;;;23.13;10.45;;;;;;;12.73;100.00;101850.78;5086496;28;20753;-73
2022/05/07 01:59:19;;;;;;;19.88;10.43;;;;;;;12.71;100.00;101847.59;5075560;28;20054;-73
2022/05/07 02:01:46;;;;;;;24.30;10.68;;;;;;;12.70;100.00;101846.00;5078061;28;20148;-74
2022/05/07 02:04:12;;;;;;;18.58;10.25;;;;;;;12.71;100.00;101839.25;5083952;28;20043;-73
2022/05/07 02:06:39;;;;;;;20.88;10.20;;;;;;;12.69;100.00;101839.63;5079036;28;20052;-72
2022/05/07 02:09:05;;;;;;;20.75;9.73;;;;;;;12.64;100.00;101839.19;5083243;28;20139;-75
2022/05/07 02:11:32;;;;;;;20.65;10.98;;;;;;;12.62;100.00;101833.22;5084111;28;20055;-73
2022/05/07 02:13:58;;;;;;;19.65;9.93;;;;;;;12.58;100.00;101838.75;5081465;28;20051;-72
2022/05/07 02:16:25;;;;;;;19.42;10.95;;;;;;;12.54;100.00;101837.94;5083420;28;20132;-73
2022/05/07 02:18:51;;;;;;;21.80;10.13;;;;;;;12.53;100.00;101836.31;5076378;28;20052;-73
2022/05/07 02:21:18;;;;;;;21.48;10.95;;;;;;;12.51;100.00;101835.13;5084633;28;20127;-73
2022/05/07 02:23:45;;;;;;;22.65;10.60;;;;;;;12.48;100.00;101833.09;5084213;28;20568;-72
2022/05/07 02:26:11;;;;;;;19.65;10.07;;;;;;;12.49;100.00;101835.50;5078969;28;20505;-72
2022/05/07 02:28:37;;;;;;;21.98;10.35;;;;;;;12.50;100.00;101836.31;5076609;28;20048;-72
2022/05/07 02:31:04;;;;;;;20.20;10.15;;;;;;;12.49;100.00;101829.16;5083829;28;20101;-71
2022/05/07 02:33:31;;;;;;;21.05;10.35;;;;;;;12.47;100.00;101837.06;5082574;28;20057;-73
2022/05/07 02:35:57;;;;;;;22.70;11.85;;;;;;;12.42;100.00;101826.34;5086664;28;20048;-72
2022/05/07 02:38:24;;;;;;;20.83;11.57;;;;;;;12.41;100.00;101835.81;5072778;28;20602;-72
2022/05/07 02:43:35;;;;;;;21.83;11.80;;;;;;;12.34;100.00;101828.25;5075258;28;20051;-73
2022/05/07 02:46:02;;;;;;;21.42;11.95;;;;;;;12.33;100.00;101829.44;5078617;28;20044;-73
2022/05/07 02:48:28;;;;;;;23.80;11.00;;;;;;;12.36;100.00;101834.19;5078053;28;20059;-74
2022/05/07 02:50:56;;;;;;;22.35;10.48;;;;;;;12.34;100.00;101835.75;5086820;28;20469;-72
2022/05/07 02:53:22;;;;;;;22.95;11.70;;;;;;;12.32;100.00;101832.59;5070309;28;20059;-73
2022/05/07 02:55:49;;;;;;;22.92;11.95;;;;;;;12.30;100.00;101832.16;5082754;28;20618;-72
2022/05/07 02:58:15;;;;;;;24.13;11.35;;;;;;;12.28;100.00;101829.75;5072282;28;20060;-73
2022/05/07 03:00:42;;;;;;;20.73;11.38;;;;;;;12.31;100.00;101836.50;5083001;28;20193;-72
2022/05/07 03:03:09;;;;;;;21.65;11.55;;;;;;;12.30;100.00;101840.47;5074996;28;20087;-72
2022/05/07 03:05:35;;;;;;;26.30;11.77;;;;;;;12.30;100.00;101837.69;5077966;28;20102;-72
2022/05/07 03:08:02;;;;;;;20.85;10.82;;;;;;;12.27;100.00;101836.50;5081036;28;20052;-72
2022/05/07 03:10:28;;;;;;;21.33;10.77;;;;;;;12.22;100.00;101836.06;5076379;28;20051;-73
2022/05/07 03:12:55;;;;;;;22.77;11.05;;;;;;;12.19;100.00;101836.81;5073879;28;20068;-73
2022/05/07 03:15:21;;;;;;;20.73;11.13;;;;;;;12.18;100.00;101840.75;5082150;28;20796;-73
2022/05/07 03:17:48;;;;;;;21.27;11.55;;;;;;;12.14;100.00;101843.50;5076465;28;20392;-72
2022/05/07 03:20:16;;;;;;;20.50;10.88;;;;;;;12.13;100.00;101841.91;5077747;28;20135;-71
2022/05/07 03:22:42;;;;;;;21.23;10.75;;;;;;;12.09;100.00;101837.50;5070919;28;20112;-72
2022/05/07 03:25:09;;;;;;;22.33;11.65;;;;;;;12.07;100.00;101834.28;5076343;28;20048;-72
2022/05/07 03:27:36;;;;;;;24.85;11.77;;;;;;;12.07;100.00;101829.56;5073240;28;20781;-72
2022/05/07 03:30:04;;;;;;;22.00;10.48;;;;;;;12.04;100.00;101835.84;5086762;28;20039;-72
2022/05/07 03:32:31;;;;;;;22.10;11.63;;;;;;;12.04;100.00;101829.50;5072268;28;20060;-72
2022/05/07 03:34:57;;;;;;;21.35;11.27;;;;;;;12.04;100.00;101835.06;5084089;28;20064;-72
2022/05/07 03:37:24;;;;;;;22.42;11.95;;;;;;;12.02;100.00;101831.88;5081974;28;20087;-71
2022/05/07 03:39:51;;;;;;;24.23;12.68;;;;;;;11.98;100.00;101822.72;5083326;28;20138;-73
2022/05/07 03:42:19;;;;;;;24.17;12.52;;;;;;;11.99;100.00;101827.91;5073729;28;20795;-72
2022/05/07 03:44:47;;;;;;;27.63;12.02;;;;;;;11.95;100.00;101831.81;5068578;28;20058;-72
2022/05/07 03:47:13;;;;;;;26.25;12.30;;;;;;;11.97;100.00;101826.66;5076410;28;20516;-72
2022/05/07 03:49:40;;;;;;;23.45;12.13;;;;;;;11.96;100.00;101831.44;5086618;28;20147;-72
2022/05/07 03:54:52;;;;;;;22.88;11.85;;;;;;;11.91;100.00;101837.28;5069312;28;20074;-73
2022/05/07 03:57:19;;;;;;;20.77;11.50;;;;;;;11.94;100.00;101838.50;5094425;28;20058;-73
2022/05/07 03:59:45;;;;;;;21.45;11.77;;;;;;;11.93;100.00;101836.91;5075119;28;20080;-73
2022/05/07 04:02:12;;;;;;;23.75;12.13;;;;;;;11.91;100.00;101839.28;5074040;28;20040;-72
2022/05/07 04:04:39;;;;;;;24.20;11.85;;;;;;;11.91;100.00;101842.84;5078284;28;20625;-74
2022/05/07 04:07:05;;;;;;;21.25;11.32;;;;;;;11.92;100.00;101844.44;5079980;28;20047;-72
2022/05/07 04:09:32;;;;;;;22.02;11.38;;;;;;;11.92;100.00;101838.09;5080937;28;20055;-72
2022/05/07 04:11:58;;;;;;;22.70;11.63;;;;;;;11.91;100.00;101834.53;5073637;28;20488;-72
2022/05/07 04:14:25;;;;;;;26.60;12.68;;;;;;;11.94;100.00;101846.81;5078840;28;20573;-72
2022/05/07 04:16:51;;;;;;;31.40;13.52;;;;;;;11.93;100.00;101845.25;5077059;28;20062;-72
2022/05/07 04:19:18;;;;;;;27.40;12.77;;;;;;;11.96;100.00;101845.28;5076971;28;20052;-72
2022/05/07 04:21:44;;;;;;;31.45;13.45;;;;;;;11.97;100.00;101846.06;5070024;28;20120;-73
2022/05/07 04:24:11;;;;;;;23.73;12.68;;;;;;;11.97;100.00;101849.66;5079620;28;20052;-72
2022/05/07 04:26:37;;;;;;;24.77;13.02;;;;;;;12.02;100.00;101851.28;5072036;28;20075;-73
2022/05/07 04:29:04;;;;;;;26.35;12.25;;;;;;;12.07;100.00;101845.38;5082789;28;20066;-72
2022/05/07 04:31:30;;;;;;;25.48;12.40;;;;;;;12.09;100.00;101849.38;5079349;28;20048;-74
2022/05/07 04:33:57;;;;;;;25.42;12.02;;;;;;;12.11;100.00;101844.25;5084402;28;20105;-74
2022/05/07 04:36:23;;;;;;;27.20;12.40;;;;;;;12.16;100.00;101843.13;5070585;28;20521;-74
2022/05/07 04:38:50;;;;;;;22.90;12.48;;;;;;;12.19;100.00;101842.34;5080712;28;20059;-74
2022/05/07 04:41:16;;;;;;;24.17;12.40;;;;;;;12.17;100.00;101844.72;5078662;28;20067;-73
2022/05/07 04:43:42;;;;;;;26.75;13.25;;;;;;;12.23;100.00;101851.50;5078177;28;20052;-73
2022/05/07 04:46:09;;;;;;;21.85;11.40;;;;;;;12.24;100.00;101840.03;5066023;28;20581;-74
2022/05/07 04:48:36;;;;;;;23.35;11.70;;;;;;;12.30;100.00;101844.06;5082982;28;20056;-74
2022/05/07 04:51:02;;;;;;;21.95;11.77;;;;;;;12.37;100.00;101852.47;5085109;28;20051;-74
2022/05/07 04:53:49;;;;;;;24.67;12.40;;;;;;;12.43;100.00;101850.91;5078162;28;20507;-73
2022/05/07 04:56:15;;;;;;;23.60;12.70;;;;;;;12.51;100.00;101849.81;5079800;28;20052;-73
2022/05/07 04:58:42;;;;;;;24.13;13.00;;;;;;;12.60;100.00;101855.03;5078311;28;20766;-73
2022/05/07 05:01:08;;;;;;;24.48;12.85;;;;;;;12.66;100.00;101861.84;5075100;28;20048;-75
2022/05/07 05:03:35;;;;;;;26.90;13.23;;;;;;;12.69;100.00;101863.84;5078357;28;20131;-72
2022/05/07 05:06:02;;;;;;;25.38;11.77;;;;;;;12.73;100.00;101861.91;5066550;28;20068;-73
2022/05/07 05:08:30;;;;;;;27.50;14.18;;;;;;;12.74;100.00;101855.97;5077542;28;20055;-74
2022/05/07 05:10:57;;;;;;;23.35;12.70;;;;;;;12.82;100.00;101860.38;5077775;28;20082;-73
2022/05/07 05:13:24;;;;;;;25.95;13.73;;;;;;;12.87;100.00;101856.44;5083853;28;20689;-73
2022/05/07 05:15:50;;;;;;;25.38;12.95;;;;;;;12.91;100.00;101855.31;5082039;28;20095;-73
2022/05/07 05:18:17;;;;;;;26.38;13.65;;;;;;;13.02;100.00;101866.50;5084151;28;20598;-71
2022/05/07 05:20:44;;;;;;;26.45;13.70;;;;;;;13.08;100.00;101870.53;5076531;28;20574;-72
2022/05/07 05:23:10;;;;;;;27.65;14.52;;;;;;;13.15;100.00;101872.53;5073115;28;20098;-72
2022/05/07 05:25:38;;;;;;;24.27;13.38;;;;;;;13.20;100.00;101872.19;5078146;28;20128;-72
2022/05/07 05:28:04;;;;;;;25.23;13.70;;;;;;;13.26;100.00;101876.22;5087293;28;20048;-73
2022/05/07 05:30:31;;;;;;;23.83;13.35;;;;;;;13.30;100.00;101875.06;5071807;28;20063;-73
2022/05/07 05:32:57;;;;;;;25.38;13.82;;;;;;;13.33;100.00;101874.25;5087724;28;20056;-73
2022/05/07 05:35:24;;;;;;;28.10;14.07;;;;;;;13.37;100.00;101872.31;5082313;28;20068;-72
2022/05/07 05:37:50;;;;;;;25.13;14.52;;;;;;;13.46;100.00;101880.31;5086366;28;20059;-74
2022/05/07 05:40:17;;;;;;;26.52;13.85;;;;;;;13.51;100.00;101882.69;5074750;28;20049;-72
2022/05/07 05:42:43;;;;;;;25.65;14.43;;;;;;;13.59;100.00;101882.34;5086331;28;20063;-73
2022/05/07 05:45:10;;;;;;;27.05;14.20;;;;;;;13.56;100.00;101888.69;5072092;28;20068;-73
2022/05/07 05:47:37;;;;;;;25.90;14.50;;;;;;;13.60;100.00;101888.72;5086694;28;20079;-73
2022/05/07 05:50:04;;;;;;;32.45;14.70;;;;;;;13.67;100.00;101889.53;5080953;28;20184;-74
2022/05/07 05:52:32;;;;;;;30.25;15.82;;;;;;;13.72;100.00;101889.16;5076335;28;20040;-74
2022/05/07 05:54:58;;;;;;;28.10;15.35;;;;;;;13.74;100.00;101884.00;5082038;28;20097;-74
2022/05/07 05:57:26;;;;;;;29.48;15.65;;;;;;;13.86;100.00;101889.22;5090858;28;20135;-74
2022/05/07 05:59:53;;;;;;;28.98;16.42;;;;;;;14.00;100.00;101897.63;5071344;28;20048;-74
2022/05/07 06:02:20;;;;;;;32.05;16.65;;;;;;;14.09;100.00;101895.28;5078203;28;20040;-74
2022/05/07 06:04:46;;;;;;;31.55;16.52;;;;;;;14.19;100.00;101886.16;5082209;28;20044;-74
2022/05/07 06:07:13;;;;;;;29.20;17.02;;;;;;;14.30;100.00;101894.56;5083095;28;20050;-74
2022/05/07 06:09:39;;;;;;;31.95;17.98;;;;;;;14.44;100.00;101897.38;5075165;28;20455;-74
2022/05/07 06:12:06;;;;;;;32.70;19.98;;;;;;;14.56;100.00;101895.03;5088050;28;20052;-74
2022/05/07 06:14:33;;;;;;;37.10;20.05;;;;;;;14.66;100.00;101885.88;5071521;28;20150;-74
2022/05/07 06:16:59;;;;;;;38.13;20.98;;;;;;;14.74;100.00;101893.03;5078236;28;20130;-76
2022/05/07 06:19:26;;;;;;;36.38;20.33;;;;;;;14.78;100.00;101893.06;5071257;28;20049;-74
2022/05/07 06:21:52;;;;;;;40.90;21.55;;;;;;;14.79;100.00;101889.84;5071166;28;20040;-76
2022/05/07 06:29:50;;;;;;;40.83;21.92;;;;;;;15.18;100.00;101895.41;5080667;28;20076;-74
2022/05/07 06:32:18;;;;;;;39.53;21.67;;;;;;;15.21;99.21;101895.41;5082311;28;20069;-75
2022/05/07 06:34:45;;;;;;;43.70;23.45;;;;;;;15.35;98.76;101895.38;5078814;28;20135;-74
2022/05/07 06:37:12;;;;;;;40.63;26.13;;;;;;;15.45;97.83;101900.16;5078568;28;20040;-75
2022/05/07 06:39:40;;;;;;;44.40;25.15;;;;;;;15.50;97.28;101896.19;5085217;28;20466;-75
2022/05/07 06:42:07;;;;;;;42.40;24.30;;;;;;;15.60;96.41;101894.56;5082044;28;20055;-74
2022/05/07 06:44:34;;;;;;;45.35;26.85;;;;;;;15.69;96.12;101892.13;5078111;28;20144;-75
2022/05/07 06:47:01;;;;;;;42.95;24.15;;;;;;;15.72;94.86;101894.13;5077354;28;20044;-75
2022/05/07 06:49:27;;;;;;;41.40;25.08;;;;;;;15.75;93.46;101898.88;5086313;28;20452;-75
2022/05/07 06:51:54;;;;;;;45.75;27.13;;;;;;;15.91;94.44;101886.06;5083028;28;20132;-74
2022/05/07 06:54:21;;;;;;;47.88;26.23;;;;;;;16.04;93.85;101890.00;5077235;28;20142;-74
2022/05/07 06:56:47;;;;;;;47.00;28.08;;;;;;;16.14;93.69;101889.16;5080839;28;20125;-74
2022/05/07 06:59:14;;;;;;;44.33;25.35;;;;;;;16.14;92.31;101896.72;5069761;28;20067;-74
2022/05/07 07:01:41;;;;;;;41.22;22.98;;;;;;;16.20;91.73;101895.88;5074493;28;20078;-74
2022/05/07 07:04:07;;;;;;;48.72;27.83;;;;;;;16.28;90.58;101900.22;5076179;28;20051;-74
2022/05/07 07:06:34;;;;;;;48.20;26.73;;;;;;;16.37;90.66;101894.97;5077467;28;20052;-75
2022/05/07 07:09:01;;;;;;;44.33;25.90;;;;;;;16.47;89.34;101898.97;5079982;28;20138;-74
2022/05/07 07:11:27;;;;;;;45.20;23.85;;;;;;;16.52;89.12;101902.09;5075103;28;20059;-75
2022/05/07 07:13:54;;;;;;;42.78;25.05;;;;;;;16.59;88.62;101898.47;5079871;28;20182;-73
2022/05/07 07:16:20;;;;;;;42.40;24.08;;;;;;;16.72;88.09;101902.34;5082414;28;20048;-72
2022/05/07 07:18:47;;;;;;;43.30;25.38;;;;;;;16.81;86.96;101902.69;5072451;28;20058;-74
2022/05/07 07:21:14;;;;;;;37.90;22.50;;;;;;;16.88;86.10;101905.44;5072482;28;20154;-74
2022/05/07 07:23:40;;;;;;;41.67;25.52;;;;;;;16.98;86.59;101908.13;5078395;28;20097;-74
2022/05/07 07:26:07;;;;;;;39.97;22.75;;;;;;;17.08;85.40;101906.47;5085350;28;20131;-68
2022/05/07 07:28:34;;;;;;;41.42;24.38;;;;;;;17.15;84.56;101907.16;5080771;28;20157;-71
2022/05/07 07:31:01;;;;;;;41.25;24.50;;;;;;;17.24;84.34;101904.69;5071026;28;20541;-71
2022/05/07 07:33:28;;;;;;;42.50;25.48;;;;;;;17.33;83.76;101905.03;5084003;28;20394;-71
2022/05/07 07:35:54;;;;;;;40.13;23.65;;;;;;;17.46;83.60;101905.31;5080327;28;20080;-71
2022/05/07 07:38:25;;;;;;;39.50;23.10;;;;;;;17.54;81.51;101901.22;5082056;28;20635;-71
2022/05/07 07:40:55;;;;;;;43.22;24.60;;;;;;;17.73;82.61;101904.22;5068205;28;20060;-69
2022/05/07 07:43:22;;;;;;;45.00;25.00;;;;;;;17.94;82.40;101905.94;5075482;28;20070;-70
2022/05/07 07:48:34;;;;;;;41.17;23.23;;;;;;;18.19;79.62;101902.84;5081174;28;20522;-71
2022/05/07 07:51:01;;;;;;;18.73;7.60;;;;;;;18.09;74.16;101904.53;5082354;28;20144;-72
2022/05/07 07:53:28;;;;;;;36.05;20.55;;;;;;;18.17;72.66;101908.06;5068731;28;20048;-69
2022/05/07 07:55:54;;;;;;;25.52;11.98;;;;;;;18.24;72.55;101905.16;5087636;28;20476;-72
2022/05/07 07:58:21;;;;;;;40.05;22.67;;;;;;;18.34;72.83;101902.22;5072334;28;20528;-72
2022/05/07 08:00:48;;;;;;;43.60;18.08;;;;;;;18.39;71.75;101907.38;5075448;28;20528;-70
2022/05/07 08:03:16;;;;;;;26.65;13.77;;;;;;;18.46;70.61;101909.28;5081518;28;20078;-71
2022/05/07 08:05:45;;;;;;;40.50;22.00;;;;;;;18.49;70.36;101906.41;5074853;28;20049;-71
2022/05/07 08:13:46;;;;;;;32.05;14.52;;;;;;;18.71;70.39;101907.69;5074310;28;20136;-73
2022/05/07 08:16:14;;;;;;;34.70;18.73;;;;;;;18.75;70.83;101905.63;5081251;28;20044;-71
2022/05/07 08:18:41;;;;;;;40.72;22.08;;;;;;;19.00;71.93;101908.81;5072945;28;20060;-71
2022/05/07 08:21:09;;;;;;;34.03;16.58;;;;;;;18.98;67.77;101905.66;5082818;28;20118;-71
2022/05/07 08:23:37;;;;;;;36.83;17.60;;;;;;;19.11;67.78;101906.63;5085958;28;20055;-71
2022/05/07 08:26:06;;;;;;;38.65;20.42;;;;;;;19.30;68.16;101913.53;5080930;28;20060;-70
2022/05/07 08:28:38;;;;;;;33.22;14.50;;;;;;;19.43;66.75;101904.06;5072776;28;20330;-71
2022/05/07 08:31:05;;;;;;;26.02;11.25;;;;;;;19.55;65.51;101909.06;5069018;28;20045;-71
2022/05/07 08:33:33;;;;;;;22.75;10.80;;;;;;;19.66;65.11;101915.25;5078514;28;20082;-73
2022/05/07 08:36:00;;;;;;;39.10;20.40;;;;;;;19.81;66.02;101904.53;5076520;28;20097;-71
2022/05/07 08:38:27;;;;;;;37.78;21.30;;;;;;;19.99;66.40;101908.56;5080793;28;20071;-72
2022/05/07 08:40:53;;;;;;;37.47;20.40;;;;;;;20.11;64.53;101896.69;5087268;28;20135;-70
2022/05/07 08:43:20;;;;;;;40.63;21.42;;;;;;;20.29;65.12;101905.50;5072133;28;20167;-70
2022/05/07 08:45:47;;;;;;;40.13;20.38;;;;;;;20.55;64.54;101905.75;5072115;28;20060;-73
2022/05/07 08:48:13;;;;;;;38.78;20.83;;;;;;;20.64;62.60;101909.53;5089269;28;20056;-71
2022/05/07 08:50:41;;;;;;;42.10;21.30;;;;;;;20.68;60.86;101912.28;5093038;28;20054;-71
2022/05/07 08:53:09;;;;;;;36.88;21.08;;;;;;;20.81;60.23;101913.13;5081000;28;20048;-72
2022/05/07 08:55:36;;;;;;;33.97;16.27;;;;;;;20.80;57.72;101912.34;5087944;28;20056;-72
2022/05/07 08:58:03;;;;;;;40.47;20.05;;;;;;;20.88;56.82;101907.31;5082144;28;20067;-72
2022/05/07 09:00:29;;;;;;;41.58;19.45;;;;;;;21.11;57.59;101905.16;5085148;28;20062;-74
2022/05/07 09:02:59;;;;;;;34.65;17.85;;;;;;;21.19;55.93;101905.78;5079319;28;20075;-71
2022/05/07 09:05:34;;;;;;;26.75;9.98;;;;;;;21.04;54.23;101907.38;5083516;28;20143;-71
2022/05/07 09:08:02;;;;;;;12.60;5.88;;;;;;;21.17;53.98;101905.41;5084715;28;20112;-70
2022/05/07 09:10:36;;;;;;;43.22;20.90;;;;;;;21.37;53.67;101904.09;5082554;28;20055;-72
2022/05/07 09:13:14;;;;;;;40.58;19.55;;;;;;;21.53;51.69;101900.44;5082147;28;20465;-71
2022/05/07 09:15:51;;;;;;;38.00;18.10;;;;;;;21.81;52.59;101896.84;5083160;28;20473;-69
2022/05/07 09:18:20;;;;;;;31.63;16.38;;;;;;;21.78;51.42;101903.38;5084977;28;20424;-71
2022/05/07 09:21:16;;;;;;;33.53;15.95;;;;;;;21.86;50.09;101910.38;5079798;28;20139;-68
2022/05/07 09:23:44;;;;;;;;;;;;;;;21.91;49.41;101904.19;5077162;28;20053;-69
2022/05/07 09:26:25;;;;;;;34.20;14.55;;;;;;;21.79;49.42;101905.75;5071159;28;19934;-69
2022/05/07 09:28:52;;;;;;;20.55;8.98;;;;;;;21.69;49.20;101903.97;5069599;28;20071;-70
2022/05/07 09:31:30;;;;;;;34.60;15.80;;;;;;;21.81;48.71;101896.84;5071361;28;20045;-69
2022/05/07 09:36:44;;;;;;;30.77;15.45;;;;;;;22.22;48.54;101897.63;5071211;28;20175;-72
2022/05/07 09:39:13;;;;;;;36.72;18.25;;;;;;;22.51;49.71;101897.56;5086446;28;20130;-73
2022/05/07 09:41:43;;;;;;;34.05;18.25;;;;;;;22.80;49.74;101889.75;5070567;28;20048;-72
2022/05/07 09:44:12;;;;;;;33.95;19.13;;;;;;;22.72;47.71;101891.22;5084356;28;20050;-72
2022/05/07 09:46:39;;;;;;;35.15;19.33;;;;;;;22.98;48.38;101889.16;5078648;28;20048;-73
2022/05/07 09:49:07;;;;;;;37.00;19.20;;;;;;;22.79;47.24;101893.81;5078611;28;20687;-72
2022/05/07 09:51:34;;;;;;;39.13;21.65;;;;;;;22.57;46.10;101890.91;5081305;28;20071;-73
2022/05/07 09:59:32;;;;;;;36.97;20.52;;;;;;;22.57;46.27;101879.59;5075809;28;20556;-70
2022/05/07 10:02:20;;;;;;;35.28;19.02;;;;;;;22.91;45.18;101884.53;5081198;28;20471;-76
2022/05/07 10:05:10;;;;;;;36.65;20.55;;;;;;;23.25;46.43;101889.47;5084163;28;20064;-73
2022/05/07 10:08:24;;;;;;;41.22;23.80;;;;;;;23.34;44.91;101884.69;5077041;28;20051;-70
2022/05/07 10:10:52;;;;;;;35.58;19.27;;;;;;;23.36;45.81;101887.84;5071875;28;20155;-69
2022/05/07 10:13:20;;;;;;;37.15;19.88;;;;;;;23.62;46.47;101889.28;5070328;28;20751;-68
2022/05/07 10:15:58;;;;;;;40.60;19.83;;;;;;;23.83;45.29;101874.38;5079651;28;20102;-69
2022/05/07 10:18:40;;;;;;;27.40;12.80;;;;;;;23.47;42.96;101890.28;5074667;28;20051;-68
2022/05/07 10:21:15;;;;;;;35.40;19.10;;;;;;;23.91;44.48;101875.69;5072307;28;20048;-72
2022/05/07 10:23:50;;;;;;;36.38;19.48;;;;;;;24.03;43.57;101871.25;5082082;28;20058;-68
2022/05/07 10:26:17;;;;;;;35.67;21.83;;;;;;;23.90;43.79;101876.97;5075327;28;20111;-69
2022/05/07 10:28:44;;;;;;;33.60;17.02;;;;;;;23.86;43.36;101867.81;5071372;28;20097;-69
2022/05/07 10:31:24;;;;;;;31.00;14.82;;;;;;;23.49;44.17;101876.50;5072461;28;20079;-71
2022/05/07 10:33:52;;;;;;;36.22;18.85;;;;;;;23.60;44.33;101869.22;5074407;28;20075;-75
2022/05/07 10:36:19;;;;;;;32.88;20.35;;;;;;;23.93;44.32;101866.75;5079585;28;20051;-75
2022/05/07 10:38:46;;;;;;;35.90;19.58;;;;;;;24.24;43.48;101862.72;5086647;28;20058;-72
2022/05/07 10:41:16;;;;;;;31.80;19.58;;;;;;;24.42;43.57;101857.16;5088710;28;20164;-72
2022/05/07 10:43:47;;;;;;;37.10;21.35;;;;;;;24.48;43.22;101858.13;5072867;28;20106;-72
2022/05/07 10:46:20;;;;;;;32.75;19.17;;;;;;;24.39;43.01;101866.56;5073161;28;20079;-72
2022/05/07 10:49:04;;;;;;;36.38;18.40;;;;;;;24.52;43.05;101849.47;5072120;28;20228;-74
2022/05/07 10:51:36;;;;;;;35.50;20.35;;;;;;;24.71;43.64;101860.41;5074517;28;20167;-71
2022/05/07 10:54:19;;;;;;;32.65;19.33;;;;;;;24.88;42.48;101860.94;5073682;28;20520;-73
2022/05/07 10:56:48;;;;;;;32.35;17.90;;;;;;;25.01;42.04;101859.53;5078257;28;20079;-72
2022/05/07 10:59:15;;;;;;;30.60;16.88;;;;;;;25.15;41.79;101850.41;5069962;28;20048;-75
2022/05/07 11:01:42;;;;;;;33.92;18.10;;;;;;;25.09;42.02;101848.69;5072201;28;20075;-71
2022/05/07 11:04:12;;;;;;;28.95;17.13;;;;;;;24.96;41.93;101848.84;5085855;28;20044;-72
2022/05/07 11:06:39;;;;;;;32.72;18.50;;;;;;;25.00;42.46;101857.97;5079062;28;20076;-73
2022/05/07 11:09:07;;;;;;;33.88;19.10;;;;;;;24.93;42.80;101849.78;5064905;28;20078;-76
2022/05/07 11:11:44;;;;;;;32.05;16.88;;;;;;;24.58;40.63;101842.75;5063299;28;20605;-74
2022/05/07 11:14:20;;;;;;;28.17;15.88;;;;;;;24.49;41.34;101841.91;5071510;28;20044;-74
2022/05/07 11:16:47;;;;;;;29.05;14.77;;;;;;;24.47;42.26;101841.59;5085318;28;20463;-72
2022/05/07 11:19:23;;;;;;;29.90;16.98;;;;;;;24.26;41.73;101846.06;5079589;28;20052;-72
2022/05/07 11:21:52;;;;;;;29.67;16.00;;;;;;;24.06;41.37;101847.72;5078938;28;20076;-73
2022/05/07 11:24:22;;;;;;;29.38;15.60;;;;;;;24.06;42.21;101842.81;5078691;28;20066;-72
2022/05/07 11:26:53;;;;;;;29.77;16.42;;;;;;;24.21;42.38;101838.19;5080858;28;20532;-73
2022/05/07 11:29:20;;;;;;;26.38;15.73;;;;;;;24.43;42.23;101843.81;5070373;28;20044;-72
2022/05/07 11:31:56;;;;;;;27.88;15.90;;;;;;;24.43;40.59;101836.06;5071128;28;20591;-69
2022/05/07 11:34:34;;;;;;;26.38;13.90;;;;;;;24.54;40.74;101830.75;5077058;28;20055;-69
2022/05/07 11:37:21;;;;;;;23.70;14.10;;;;;;;24.49;40.20;101836.25;5078262;28;20465;-71
2022/05/07 11:39:59;;;;;;;25.15;14.73;;;;;;;24.72;40.92;101832.91;5077202;28;20075;-76
2022/05/07 11:42:33;;;;;;;23.90;12.25;;;;;;;24.76;39.64;101830.69;5080696;28;20064;-73
2022/05/07 11:45:26;;;;;;;27.25;15.65;;;;;;;24.70;40.48;101829.72;5067018;28;20063;-73